WhaleNet STOP Data
Harbor Porpoise
Duke University
Marine Lab

Sighting Data for "Shackelton" and "Sacagawea"
.

Harbor porpoises (Phocoena phocoena) tagged and released in August, 1998 in Maine by researchers with the Duke University Marine Lab.


PTT-98 "Shackelton"
Argos Number: 16300
Sex: Male
Length: 136 cm
Mass: XX kg
Released on 6 August 1998
"Shackelton" Data
PTT-98 "Sacagawea"
Argos Number: 07250
Sex: Female
Length: 164 cm
Mass: 53 kg
Released on 8 August 1998
"Sacagawea" Data

Satellite Fixes

Data Format key:
Date (dd.mm.yy): 22.08.98 23:06:55 Time (hr:min:sec)(in GMT), LC (fix quality)

LC just stands for Location Class. Location Classes of 0 and up are the best (derived from 4 or more messages)- a Class 0 is good to within between 1,000 and 5,000 meters. Classes 1,2,3- get consistently more accurate. The letter classes are given no estimate of error, but the A's are better than the B's etc. It appears that some of the letter class locations are pretty good (i.e. several fixes over a short period are quite similar), but then others vary wildly- especially the longitude.

> Lat1: 48.275N [latitude] Lon1: 69.232W [longitude]

Sample Questions and Activities--

1. How far do harbor porpoise travel a day? (Average)
2. How far did they travel since their initial tagging?
3. Why do you think they are traveling in a particular direction?
4. Why do whales/porpoises migrate?
5. What is the average rate of travel?
6. What other questions do you have regarding "Shackelton" and "Sacagawea"?
7. How would you find your answers?
8. What other information would you need?

Analysis Tools

Map Generator Generate your own maps of any location.

Distance Generator Use this to determine the distance and heading between any two fixes.


"Shackelton" Data, Tag # 16300

16300 Date : 06.08.98 22:04:43 LC : 0 Lat1 : 44.866N Lon1 : 66.611W
16300 Date : 07.08.98 21:44:20 LC : 0 Lat1 : 44.768N Lon1 : 66.877W
16300 Date : 08.08.98 21:21:34 LC : 1 Lat1 : 44.761N Lon1 : 66.837W
16300 Date : 09.08.98 20:57:16 LC : 1 Lat1 : 44.823N Lon1 : 66.792W
16300 Date : 10.08.98 22:16:31 LC : 1 Lat1 : 44.719N Lon1 : 66.695W
16300 Date : 11.08.98 19:37:49 LC : 1 Lat1 : 44.831N Lon1 : 66.758W
16300 Date : 12.08.98 22:17:04 LC : 2 Lat1 : 44.728N Lon1 : 66.709W
16300 Date : 13.08.98 22:23:53 LC : 1 Lat1 : 44.810N Lon1 : 66.815W
16300 Date : 14.08.98 22:25:49 LC : 1 Lat1 : 44.801N Lon1 : 66.744W
16300 Date : 15.08.98 20:25:31 LC : 1 Lat1 : 44.783N Lon1 : 66.728W
16300 Date : 16.08.98 20:05:06 LC : 1 Lat1 : 44.754N Lon1 : 66.684W
16300 Date : 17.08.98 22:05:51 LC : 1 Lat1 : 44.831N Lon1 : 66.740W
16300 Date : 18.08.98 18:20:46 LC : 1 Lat1 : 44.800N Lon1 : 66.823W
16300 Date : 19.08.98 22:17:26 LC : 1 Lat1 : 44.755N Lon1 : 66.710W
16300 Date : 21.08.98 22:18:38 LC : 1 Lat1 : 44.590N Lon1 : 66.682W
16300 Date : 22.08.98 19:14:01 LC : 2 Lat1 : 44.773N Lon1 : 66.609W
16300 Date : 23.08.98 19:06:13 LC : 1 Lat1 : 44.853N Lon1 : 66.770W
16300 Date : 24.08.98 20:28:44 LC : 3 Lat1 : 44.740N Lon1 : 66.834W
16300 Date : 25.08.98 22:26:47 LC : 0 Lat1 : 44.885N Lon1 : 66.664W
16300 Date : 26.08.98 16:51:58 LC : 0 Lat1 : 44.759N Lon1 : 66.705W
16300 Date : 27.08.98 21:00:57 LC : 1 Lat1 : 44.730N Lon1 : 66.678W
16300 Date : 28.08.98 22:21:46 LC : 1 Lat1 : 44.839N Lon1 : 66.785W
16300 Date : 29.08.98 20:18:28 LC : 1 Lat1 : 44.619N Lon1 : 66.633W
16300 Date : 30.08.98 21:33:32 LC : 1 Lat1 : 44.633N Lon1 : 66.625W
16300 Date : 31.08.98 21:58:07 LC : 1 Lat1 : 44.800N Lon1 : 66.750W
16300 Date : 01.09.98 20:50:22 LC : 1 Lat1 : 44.815N Lon1 : 66.756W
16300 Date : 02.09.98 22:08:40 LC : 0 Lat1 : 44.830N Lon1 : 66.655W
16300 Date : 03.09.98 20:26:01 LC : 0 Lat1 : 44.825N Lon1 : 66.703W
16300 Date : 04.09.98 22:10:40 LC : 1 Lat1 : 44.894N Lon1 : 66.804W
16300 Date : 05.09.98 21:05:15 LC : 0 Lat1 : 44.876N Lon1 : 66.808W
16300 Date : 06.09.98 18:09:04 LC : 1 Lat1 : 44.966N Lon1 : 66.869W
16300 Date : 07.09.98 19:40:15 LC : 2 Lat1 : 44.750N Lon1 : 66.844W
16300 Date : 09.09.98 17:38:11 LC : 1 Lat1 : 44.825N Lon1 : 66.750W
16300 Date : 10.09.98 21:38:13 LC : 1 Lat1 : 44.807N Lon1 : 66.808W
16300 Date : 11.09.98 17:16:11 LC : 2 Lat1 : 44.722N Lon1 : 66.712W
16300 Date : 12.09.98 20:09:16 LC : 2 Lat1 : 44.772N Lon1 : 66.682W
16300 Date : 13.09.98 21:27:09 LC : 1 Lat1 : 44.650N Lon1 : 66.677W
16300 Date : 14.09.98 18:22:48 LC : 1 Lat1 : 44.596N Lon1 : 66.227W
16300 Date : 15.09.98 22:24:48 LC : 1 Lat1 : 44.532N Lon1 : 66.753W
16300 Date : 16.09.98 19:40:14 LC : 2 Lat1 : 44.561N Lon1 : 66.873W
16300 Date : 16.09.98 17:59:38 LC : 2 Lat1 : 44.575N Lon1 : 66.839W
16300 Date : 17.09.98 19:30:05 LC : 2 Lat1 : 44.194N Lon1 : 67.331W
16300 Date : 18.09.98 19:17:51 LC : 3 Lat1 : 44.169N Lon1 : 67.559W
16300 Date : 19.09.98 20:54:13 LC : 1 Lat1 : 44.127N Lon1 : 67.568W
16300 Date : 20.09.98 22:11:40 LC : 3 Lat1 : 44.151N Lon1 : 67.497W
16300 Date : 21.09.98 20:26:37 LC : 1 Lat1 : 44.191N Lon1 : 67.362W
16300 Date : 22.09.98 22:14:48 LC : 1 Lat1 : 44.121N Lon1 : 67.449W
16300 Date : 23.09.98 21:05:36 LC : 1 Lat1 : 44.118N Lon1 : 67.489W
16300 Date : 24.09.98 19:53:31 LC : 0 Lat1 : 43.963N Lon1 : 67.422W
16300 Date : 25.09.98 17:59:17 LC : 2 Lat1 : 44.230N Lon1 : 67.471W
16300 Date : 26.09.98 17:50:22 LC : 2 Lat1 : 44.077N Lon1 : 67.576W
16300 Date : 27.09.98 19:19:23 LC : 1 Lat1 : 44.063N Lon1 : 67.635W
16300 Date : 28.09.98 17:27:51 LC : 1 Lat1 : 43.941N Lon1 : 67.604W
16300 Date : 30.09.98 21:49:54 LC : 0 Lat1 : 43.914N Lon1 : 67.107W
16300 Date : 01.10.98 18:35:02 LC : 1 Lat1 : 43.929N Lon1 : 67.422W
16300 Date : 02.10.98 21:07:12 LC : 2 Lat1 : 43.710N Lon1 : 67.483W
16300 Date : 03.10.98 19:54:36 LC : 1 Lat1 : 43.621N Lon1 : 67.451W
16300 Date : 04.10.98 20:23:05 LC : 2 Lat1 : 43.380N Lon1 : 67.452W
16300 Date : 05.10.98 22:27:42 LC : 0 Lat1 : 43.448N Lon1 : 67.525W
16300 Date : 06.10.98 17:38:49 LC : 2 Lat1 : 43.436N Lon1 : 67.439W
16300 Date : 07.10.98 19:08:11 LC : 1 Lat1 : 43.491N Lon1 : 67.298W
16300 Date : 08.10.98 17:18:23 LC : 2 Lat1 : 43.492N Lon1 : 67.242W
16300 Date : 09.10.98 20:13:06 LC : 1 Lat1 : 43.595N Lon1 : 67.082W
16300 Date : 10.10.98 22:19:14 LC : 1 Lat1 : 43.554N Lon1 : 67.191W
16300 Date : 11.10.98 18:24:27 LC : 2 Lat1 : 43.263N Lon1 : 67.596W
16300 Date : 12.10.98 19:55:41 LC : 1 Lat1 : 43.161N Lon1 : 67.645W
16300 Date : 13.10.98 18:02:00 LC : 2 Lat1 : 42.928N Lon1 : 68.006W
16300 Date : 14.10.98 17:52:12 LC : 1 Lat1 : 43.189N Lon1 : 68.473W
16300 Date : 14.10.98 22:29:22 LC : 2 Lat1 : 43.208N Lon1 : 68.486W
16300 Date : 15.10.98 19:19:39 LC : 0 Lat1 : 43.223N Lon1 : 67.898W
16300 Date : 16.10.98 19:09:20 LC : 0 Lat1 : 43.098N Lon1 : 67.748W
16300 Date : 17.10.98 20:37:30 LC : 2 Lat1 : 43.026N Lon1 : 67.863W
16300 Date : 18.10.98 17:07:58 LC : A Lat1 : 42.991N Lon1 : 67.867W
16300 Date : 19.10.98 21:32:19 LC : 2 Lat1 : 43.051N Lon1 : 67.747W
16300 Date : 21.10.98 18:12:38 LC : 1 Lat1 : 43.195N Lon1 : 67.705W
16300 Date : 22.10.98 18:01:31 LC : 1 Lat1 : 43.216N Lon1 : 67.690W
16300 Date : 23.10.98 17:51:55 LC : 1 Lat1 : 43.090N Lon1 : 67.493W
16300 Date : 24.10.98 22:10:12 LC : 3 Lat1 : 43.168N Lon1 : 67.388W
16300 Date : 25.10.98 19:11:50 LC : 1 Lat1 : 43.111N Lon1 : 67.458W
16300 Date : 27.10.98 20:16:35 LC : 1 Lat1 : 42.979N Lon1 : 67.417W
16300 Date : 28.10.98 22:20:52 LC : 2 Lat1 : 42.941N Lon1 : 67.423W
16300 Date : 29.10.98 20:05:27 LC : 0 Lat1 : 42.814N Lon1 : 67.371W
16300 Date : 30.10.98 18:14:46 LC : 2 Lat1 : 42.578N Lon1 : 67.108W
16300 Date : 31.10.98 18:03:20 LC : A Lat1 : 42.083N Lon1 : 66.637W
16300 Date : 01.11.98 19:31:34 LC : 1 Lat1 : 42.165N Lon1 : 66.360W
16300 Date : 02.11.98 21:22:44 LC : 1 Lat1 : 42.236N Lon1 : 66.298W
16300 Date : 03.11.98 19:11:28 LC : 2 Lat1 : 42.286N Lon1 : 66.372W
16300 Date : 04.11.98 18:58:40 LC : 1 Lat1 : 42.158N Lon1 : 66.649W
16300 Date : 05.11.98 21:57:51 LC : 1 Lat1 : 42.851N Lon1 : 66.530W
16300 Date : 06.11.98 19:55:59 LC : 1 Lat1 : 42.942N Lon1 : 66.732W
16300 Date : 07.11.98 22:01:30 LC : 0 Lat1 : 42.785N Lon1 : 67.217W
16300 Date : 08.11.98 19:56:28 LC : 1 Lat1 : 42.833N Lon1 : 67.676W
16300 Date : 09.11.98 18:04:52 LC : 0 Lat1 : 42.768N Lon1 : 68.069W
16300 Date : 10.11.98 19:33:21 LC : 3 Lat1 : 42.322N Lon1 : 68.202W
16300 Date : 11.11.98 17:39:45 LC : A Lat1 : 42.438N Lon1 : 68.303W
16300 Date : 12.11.98 19:12:54 LC : B Lat1 : 42.298N Lon1 : 68.961W
The new duty cycle on the tag just kicked in on 16300. For the rest of the deployment we will only be getting data every other day.
16300 Date : 13.11.98 20:41:38 LC : 3 Lat1 : 42.562N Lon1 : 68.955W
16300 Date : 14.11.98 20:29:17 LC : 0 Lat1 : 42.476N Lon1 : 69.169W
16300 Date : 16.11.98 18:25:28 LC : 1 Lat1 : 42.255N Lon1 : 69.241W
16300 Date : 18.11.98 18:02:37 LC : 0 Lat1 : 42.089N Lon1 : 69.117W


"Sacagawea" Data, Tag# 07250

07250 Date : 09.08.98 11:16:28 LC : 0 Lat1 : 44.665N Lon1 : 66.751W
07250 Date : 10.08.98 12:32:17 LC : 1 Lat1 : 44.460N Lon1 : 66.493W
07250 Date : 11.08.98 12:10:05 LC : 2 Lat1 : 44.691N Lon1 : 66.667W
07250 Date : 12.08.98 11:51:19 LC : 1 Lat1 : 44.605N Lon1 : 66.558W
07250 Date : 13.08.98 13:05:56 LC : 2 Lat1 : 44.692N Lon1 : 66.618W
07250 Date : 14.08.98 13:30:33 LC : 2 Lat1 : 44.720N Lon1 : 66.664W
07250 Date : 15.08.98 13:08:21 LC : 3 Lat1 : 44.715N Lon1 : 66.626W
07250 Date : 16.08.98 12:03:29 LC : 2 Lat1 : 44.694N Lon1 : 66.599W
07250 Date : 17.08.98 14:00:19 LC : 1 Lat1 : 44.675N Lon1 : 66.636W
07250 Date : 18.08.98 13:12:03 LC : 3 Lat1 : 44.746N Lon1 : 66.644W
07250 Date : 19.08.98 13:16:09 LC : 3 Lat1 : 44.741N Lon1 : 66.590W
07250 Date : 20.08.98 14:24:22 LC : 1 Lat1 : 44.754N Lon1 : 66.581W
07250 Date : 22.08.98 13:51:55 LC : 1 Lat1 : 44.770N Lon1 : 66.668W
07250 Date : 23.08.98 09:17:20 LC : 1 Lat1 : 44.755N Lon1 : 66.668W
07250 Date : 24.08.98 13:08:42 LC : 0 Lat1 : 44.789N Lon1 : 66.623W
07250 Date : 25.08.98 10:24:20 LC : 1 Lat1 : 44.560N Lon1 : 66.682W
07250 Date : 26.08.98 10:01:22 LC : 3 Lat1 : 44.600N Lon1 : 66.689W
07250 Date : 27.08.98 11:18:41 LC : 1 Lat1 : 44.620N Lon1 : 66.660W
07250 Date : 28.08.98 12:36:46 LC : 1 Lat1 : 44.601N Lon1 : 66.646W
07250 Date : 29.08.98 11:18:08 LC : 2 Lat1 : 44.600N Lon1 : 66.715W
07250 Date : 30.08.98 10:12:28 LC : 3 Lat1 : 44.693N Lon1 : 66.639W
07250 Date : 31.08.98 09:50:30 LC : 1 Lat1 : 44.782N Lon1 : 66.671W
07250 Date : 01.09.98 13:33:46 LC : 0 Lat1 : 44.763N Lon1 : 66.719W
07250 Date : 02.09.98 09:08:02 LC : 2 Lat1 : 44.740N Lon1 : 66.736W
07250 Date : 03.09.98 12:49:06 LC : 0 Lat1 : 44.794N Lon1 : 66.688W
07250 Date : 03.09.98 13:11:18 LC : 2 Lat1 : 44.832N Lon1 : 66.649W
07250 Date : 05.09.98 09:39:32 LC : 1 Lat1 : 44.760N Lon1 : 66.680W
07250 Date : 06.09.98 11:42:52 LC : 1 Lat1 : 44.772N Lon1 : 66.635W
07250 Date : 07.09.98 13:03:28 LC : 0 Lat1 : 44.660N Lon1 : 66.627W
07250 Date : 08.09.98 10:15:10 LC : 1 Lat1 : 44.692N Lon1 : 66.684W
07250 Date : 09.09.98 09:51:46 LC : 1 Lat1 : 44.713N Lon1 : 66.692W
07250 Date : 10.09.98 13:25:25 LC : 1 Lat1 : 44.786N Lon1 : 66.753W
07250 Date : 11.09.98 13:12:30 LC : 1 Lat1 : 44.673N Lon1 : 66.592W
07250 Date : 12.09.98 12:04:26 LC : 3 Lat1 : 44.768N Lon1 : 66.667W
07250 Date : 13.09.98 14:28:52 LC : 3 Lat1 : 44.727N Lon1 : 66.637W
07250 Date : 14.09.98 12:37:47 LC : 2 Lat1 : 44.757N Lon1 : 66.657W
07250 Date : 15.09.98 14:04:41 LC : 1 Lat1 : 44.728N Lon1 : 66.652W
07250 Date : 16.09.98 13:03:01 LC : 1 Lat1 : 44.693N Lon1 : 66.636W
07250 Date : 17.09.98 09:42:22 LC : 1 Lat1 : 44.789N Lon1 : 66.678W
07250 Date : 18.09.98 12:18:38 LC : 1 Lat1 : 44.794N Lon1 : 66.656W
07250 Date : 19.09.98 14:55:37 LC : 1 Lat1 : 44.707N Lon1 : 66.693W
07250 Date : 20.09.98 09:08:20 LC : 2 Lat1 : 44.660N Lon1 : 66.663W
07250 Date : 21.09.98 14:28:42 LC : 2 Lat1 : 44.812N Lon1 : 66.733W
07250 Date : 22.09.98 10:06:37 LC : 2 Lat1 : 44.734N Lon1 : 66.646W
07250 Date : 23.09.98 12:23:49 LC : 2 Lat1 : 44.762N Lon1 : 66.730W
07250 Date : 24.09.98 12:40:35 LC : 2 Lat1 : 44.883N Lon1 : 66.586W
07250 Date : 25.09.98 12:18:40 LC : 1 Lat1 : 44.601N Lon1 : 66.633W
07250 Date : 26.09.98 11:58:31 LC : 3 Lat1 : 44.247N Lon1 : 67.287W
07250 Date : 27.09.98 09:56:53 LC : 2 Lat1 : 44.090N Lon1 : 68.106W
07250 Date : 28.09.98 12:00:21 LC : 3 Lat1 : 43.579N Lon1 : 68.421W
07250 Date : 29.09.98 10:52:31 LC : 3 Lat1 : 43.579N Lon1 : 68.258W
07250 Date : 30.09.98 12:37:12 LC : 2 Lat1 : 43.771N Lon1 : 68.620W
07250 Date : 01.10.98 14:07:26 LC : 1 Lat1 : 43.890N Lon1 : 68.370W
07250 Date : 02.10.98 11:26:09 LC : 3 Lat1 : 43.922N Lon1 : 68.023W
07250 Date : 03.10.98 13:28:05 LC : 2 Lat1 : 43.845N Lon1 : 67.614W
07250 Date : 04.10.98 13:07:11 LC : 1 Lat1 : 43.986N Lon1 : 67.375W
07250 Date : 05.10.98 13:15:21 LC : 1 Lat1 : 44.088N Lon1 : 67.157W
07250 Date : 06.10.98 09:56:58 LC : 3 Lat1 : 44.062N Lon1 : 67.170W
07250 Date : 07.10.98 10:20:14 LC : 1 Lat1 : 44.174N Lon1 : 67.184W
07250 Date : 08.10.98 12:38:21 LC : 3 Lat1 : 44.318N Lon1 : 67.041W
07250 Date : 09.10.98 11:15:23 LC : 1 Lat1 : 44.244N Lon1 : 66.976W
07250 Date : 10.10.98 14:12:59 LC : 0 Lat1 : 44.384N Lon1 : 67.083W
07250 Date : 11.10.98 11:26:40 LC : 1 Lat1 : 44.278N Lon1 : 66.921W
07250 Date : 12.10.98 11:50:48 LC : 1 Lat1 : 44.360N Lon1 : 67.137W
07250 Date : 13.10.98 13:07:04 LC : 1 Lat1 : 44.310N Lon1 : 67.011W
07250 Date : 14.10.98 14:43:34 LC : 3 Lat1 : 44.310N Lon1 : 66.931W
07250 Date : 15.10.98 12:51:09 LC : 1 Lat1 : 44.425N Lon1 : 66.836W
07250 Date : 16.10.98 12:03:44 LC : 0 Lat1 : 44.171N Lon1 : 67.171W
07250 Date : 17.10.98 09:14:26 LC : 2 Lat1 : 44.061N Lon1 : 67.598W
07250 Date : 18.10.98 09:01:26 LC : 1 Lat1 : 44.052N Lon1 : 66.902W
07250 Date : 19.10.98 10:07:41 LC : 3 Lat1 : 44.253N Lon1 : 66.512W
07250 Date : 20.10.98 09:47:50 LC : 2 Lat1 : 44.272N Lon1 : 66.677W
07250 Date : 21.10.98 12:44:02 LC : 2 Lat1 : 44.594N Lon1 : 66.624W
07250 Date : 22.10.98 09:55:35 LC : 1 Lat1 : 44.762N Lon1 : 66.682W
07250 Date : 23.10.98 14:29:38 LC : 0 Lat1 : 44.751N Lon1 : 66.662W
07250 Date : 24.10.98 12:27:42 LC : 2 Lat1 : 44.890N Lon1 : 66.690W
07250 Date : 25.10.98 09:22:39 LC : 2 Lat1 : 44.734N Lon1 : 66.694W
This tag, #07250, seems to have ended transmissions.


Additional and more complete data is available in the WhaleNet listerv.


Sample Questions and Activities--

1. How far do harbor porpoise travel a day? (Average)
2. How far did they travel since their initial tagging?
3. Why do you think they are traveling in a particular direction?
4. Why do whales/porpoises migrate?
5. What is the average rate of travel?
6. What other questions do you have regarding "Shackelton" and "Sacagawea"?
7. How would you find your answers?
8. What other information would you need?


WhaleNet
click here
Home Page